createdAt,value
2023-05-14T00:00:35.356Z,99.20
2023-05-14T00:01:35.441Z,99.99
2023-05-14T00:02:35.417Z,99.99
2023-05-14T00:03:35.554Z,99.99
2023-05-14T00:04:35.549Z,99.71
2023-05-14T00:05:35.452Z,99.71
2023-05-14T00:06:35.317Z,99.51
2023-05-14T00:07:35.376Z,99.41
2023-05-14T00:08:35.322Z,99.30
2023-05-14T00:09:35.505Z,99.30
2023-05-14T00:10:35.274Z,99.61
2023-05-14T00:11:35.399Z,99.41
2023-05-14T00:12:35.254Z,99.41
2023-05-14T00:13:35.313Z,99.99
2023-05-14T00:14:35.253Z,99.99
2023-05-14T00:15:35.368Z,99.99
2023-05-14T00:16:35.290Z,99.99
2023-05-14T00:17:35.373Z,99.99
2023-05-14T00:18:35.277Z,99.99
2023-05-14T00:19:35.259Z,99.99
2023-05-14T00:20:35.181Z,99.99
2023-05-14T00:21:35.261Z,99.99
2023-05-14T00:22:35.142Z,99.99
2023-05-14T00:23:35.294Z,99.99
2023-05-14T00:24:35.164Z,99.99
2023-05-14T00:25:35.198Z,99.71
2023-05-14T00:26:35.107Z,99.10
2023-05-14T00:27:35.230Z,99.61
2023-05-14T00:28:35.073Z,99.41
2023-05-14T00:29:36.200Z,99.10
2023-05-14T00:30:35.055Z,98.90
2023-05-14T00:31:35.191Z,98.90
2023-05-14T00:32:35.070Z,98.99
2023-05-14T00:33:35.167Z,98.99
2023-05-14T00:34:35.024Z,99.51
2023-05-14T00:35:35.171Z,99.82
2023-05-14T00:36:35.012Z,99.45
2023-05-14T00:37:35.108Z,99.55
2023-05-14T00:38:34.957Z,99.96
2023-05-14T00:39:35.081Z,99.99
2023-05-14T00:40:34.946Z,99.99
2023-05-14T00:41:35.152Z,99.99
2023-05-14T00:42:35.009Z,99.99
2023-05-14T00:43:35.038Z,99.99
2023-05-14T00:44:34.903Z,99.66
2023-05-14T00:45:35.030Z,99.99
2023-05-14T00:46:34.946Z,99.99
2023-05-14T00:47:35.170Z,99.66
2023-05-14T00:48:34.863Z,99.25
2023-05-14T00:49:34.957Z,99.86
2023-05-14T00:50:34.845Z,99.25
2023-05-14T00:51:34.975Z,99.25
2023-05-14T00:52:34.860Z,99.66
2023-05-14T00:53:34.997Z,99.55
2023-05-14T00:54:34.799Z,99.76
2023-05-14T00:55:34.900Z,99.96
2023-05-14T00:56:34.771Z,99.99
2023-05-14T00:57:34.952Z,99.99
2023-05-14T00:58:34.756Z,99.99
2023-05-14T00:59:34.925Z,99.99
2023-05-14T01:00:34.803Z,99.99
2023-05-14T01:01:34.959Z,99.55
2023-05-14T01:02:34.803Z,99.66
2023-05-14T01:03:34.967Z,99.99
2023-05-14T01:04:34.693Z,99.86
2023-05-14T01:05:34.902Z,99.99
2023-05-14T01:06:34.665Z,99.99
2023-05-14T01:07:34.823Z,99.99
2023-05-14T01:08:34.641Z,99.99
2023-05-14T01:09:34.799Z,99.99
2023-05-14T01:10:34.626Z,99.99
2023-05-14T01:11:34.834Z,99.96
2023-05-14T01:12:34.619Z,99.99
2023-05-14T01:13:34.726Z,99.99
2023-05-14T01:14:34.591Z,99.96
2023-05-14T01:23:23.164Z,99.55
2023-05-14T01:24:24.083Z,99.66
2023-05-14T01:25:24.163Z,99.76
2023-05-14T01:26:24.067Z,99.80
2023-05-14T01:27:24.102Z,99.80
2023-05-14T01:28:24.049Z,99.80
2023-05-14T01:29:24.080Z,99.99
2023-05-14T01:30:24.277Z,99.99
2023-05-14T01:31:24.124Z,99.99
2023-05-14T01:32:24.068Z,99.99
2023-05-14T01:33:24.104Z,99.50
2023-05-14T01:34:23.968Z,99.40
2023-05-14T01:35:24.021Z,99.40
2023-05-14T01:36:23.956Z,99.91
2023-05-14T01:37:24.074Z,99.99
2023-05-14T01:38:23.935Z,99.99
2023-05-14T01:39:24.059Z,99.60
2023-05-14T01:40:24.091Z,99.80
2023-05-14T01:41:23.960Z,99.60
2023-05-14T01:42:23.921Z,99.60
2023-05-14T01:43:23.997Z,99.50
2023-05-14T01:44:23.873Z,99.70
2023-05-14T01:45:23.999Z,99.99
2023-05-14T01:46:23.896Z,99.99
2023-05-14T01:47:23.950Z,99.99
2023-05-14T01:48:23.831Z,99.99
2023-05-14T01:49:27.329Z,99.99
2023-05-14T01:50:24.053Z,99.70
2023-05-14T01:51:25.870Z,99.60
2023-05-14T01:52:23.783Z,99.99
2023-05-14T01:53:23.833Z,99.99
2023-05-14T01:54:23.788Z,99.99
2023-05-14T01:55:25.946Z,99.70
2023-05-14T01:56:23.739Z,99.60
2023-05-14T01:57:24.782Z,99.99
2023-05-14T01:58:23.728Z,99.99
2023-05-14T01:59:23.832Z,99.99
2023-05-14T02:00:24.164Z,99.99
2023-05-14T02:01:23.865Z,99.29
2023-05-14T02:02:23.717Z,99.09
2023-05-14T02:03:23.809Z,99.09
2023-05-14T02:04:23.732Z,99.09
2023-05-14T02:05:23.730Z,99.29
2023-05-14T02:06:23.646Z,99.40
2023-05-14T02:07:23.740Z,99.70
2023-05-14T02:08:23.623Z,99.60
2023-05-14T02:09:23.761Z,99.70
2023-05-14T02:10:23.775Z,99.91
2023-05-14T02:11:23.662Z,99.99
2023-05-14T02:12:23.582Z,99.99
2023-05-14T02:13:23.681Z,99.99
2023-05-14T02:14:23.560Z,99.99
2023-05-14T02:15:23.730Z,99.99
2023-05-14T02:16:23.589Z,99.91
2023-05-14T02:17:23.625Z,99.70
2023-05-14T02:18:23.520Z,99.60
2023-05-14T02:19:23.618Z,99.99
2023-05-14T02:20:23.721Z,99.99
2023-05-14T02:21:23.637Z,99.99
2023-05-14T02:22:23.476Z,99.99
2023-05-14T02:23:34.224Z,99.99
2023-05-14T02:24:23.470Z,99.99
2023-05-14T02:25:23.558Z,99.99
2023-05-14T02:26:23.442Z,99.99
2023-05-14T02:27:23.567Z,99.99
2023-05-14T02:28:23.438Z,99.99
2023-05-14T02:29:23.480Z,99.99
2023-05-14T02:30:23.619Z,99.99
2023-05-14T02:31:23.568Z,99.99
2023-05-14T02:32:23.431Z,99.99
2023-05-14T02:33:23.624Z,99.99
2023-05-14T02:34:23.346Z,99.99
2023-05-14T02:35:25.525Z,99.99
2023-05-14T02:36:23.329Z,99.99
2023-05-14T02:37:24.470Z,99.99
2023-05-14T02:38:23.318Z,99.99
2023-05-14T02:39:24.478Z,99.99
2023-05-14T02:40:23.555Z,99.99
2023-05-14T02:41:30.284Z,99.99
2023-05-14T02:42:23.277Z,99.99
2023-05-14T02:43:23.372Z,99.99
2023-05-14T02:44:23.251Z,99.99
2023-05-14T02:45:24.348Z,99.99
2023-05-14T02:46:23.263Z,99.99
2023-05-14T02:47:23.344Z,99.99
2023-05-14T02:48:23.208Z,99.99
2023-05-14T02:49:23.317Z,99.99
2023-05-14T02:50:23.447Z,99.99
2023-05-14T02:51:23.341Z,99.99
2023-05-14T02:52:23.178Z,99.99
2023-05-14T02:53:23.256Z,99.99
2023-05-14T02:54:23.149Z,99.99
2023-05-14T02:55:23.294Z,99.99
2023-05-14T02:56:23.122Z,99.99
2023-05-14T02:57:23.271Z,99.99
2023-05-14T02:58:24.636Z,99.99
2023-05-14T02:59:23.113Z,99.99
2023-05-14T03:00:23.457Z,99.99
2023-05-14T03:01:23.092Z,99.99
2023-05-14T03:02:23.305Z,99.99
2023-05-14T03:03:23.107Z,99.99
2023-05-14T03:04:23.237Z,99.99
2023-05-14T03:05:23.048Z,99.99
2023-05-14T03:06:23.165Z,99.99
2023-05-14T03:07:23.021Z,99.99
2023-05-14T03:08:23.156Z,99.99
2023-05-14T03:09:22.997Z,99.99
2023-05-14T03:10:23.461Z,99.99
2023-05-14T03:11:22.969Z,99.99
2023-05-14T03:12:23.085Z,99.99
2023-05-14T03:13:22.946Z,99.99
2023-05-14T03:14:23.100Z,99.99
2023-05-14T03:15:22.930Z,99.99
2023-05-14T03:16:23.164Z,99.99
2023-05-14T03:17:22.963Z,99.99
2023-05-14T03:18:23.008Z,99.99
2023-05-14T03:19:22.905Z,99.99
2023-05-14T03:20:23.272Z,99.99
2023-05-14T03:21:22.870Z,99.99
2023-05-14T03:22:23.092Z,99.99
2023-05-14T03:23:22.841Z,99.99
2023-05-14T03:24:23.988Z,99.99
2023-05-14T03:25:22.849Z,99.99
2023-05-14T03:26:22.981Z,99.99
2023-05-14T03:27:22.816Z,99.99
2023-05-14T03:28:22.982Z,99.99
2023-05-14T03:29:22.779Z,99.99
2023-05-14T03:30:46.072Z,99.99
2023-05-14T03:31:22.851Z,99.99
2023-05-14T03:32:22.793Z,99.99
2023-05-14T03:33:24.868Z,99.99
2023-05-14T03:34:22.730Z,99.99
2023-05-14T03:35:22.871Z,99.99
2023-05-14T03:36:22.724Z,99.99
2023-05-14T03:37:22.843Z,99.99
2023-05-14T03:38:22.687Z,99.99
2023-05-14T03:39:22.857Z,99.99
2023-05-14T03:40:22.896Z,99.99
2023-05-14T03:41:22.872Z,99.99
2023-05-14T03:42:22.666Z,99.99
2023-05-14T03:43:22.797Z,99.99
2023-05-14T03:44:22.614Z,99.99
2023-05-14T03:45:22.803Z,99.99
2023-05-14T03:46:22.611Z,99.99
2023-05-14T03:47:22.685Z,99.99
2023-05-14T03:48:22.777Z,99.99
2023-05-14T03:49:22.640Z,99.99
2023-05-14T03:50:22.872Z,99.99
2023-05-14T03:51:22.641Z,99.96
2023-05-14T03:52:22.636Z,99.76
2023-05-14T03:53:22.664Z,99.76
2023-05-14T03:54:22.514Z,99.99
2023-05-14T03:55:22.567Z,99.99
2023-05-14T03:56:22.489Z,99.99
2023-05-14T03:57:22.605Z,99.99
2023-05-14T03:58:22.508Z,99.99
2023-05-14T03:59:22.593Z,99.99
2023-05-14T04:00:22.782Z,99.99
2023-05-14T04:01:22.511Z,99.99
2023-05-14T04:02:22.497Z,99.99
2023-05-14T04:03:22.653Z,99.99
2023-05-14T04:04:22.465Z,99.99
2023-05-14T04:05:22.531Z,99.99
2023-05-14T04:06:22.398Z,99.99
2023-05-14T04:07:24.530Z,99.99
2023-05-14T04:08:22.375Z,99.99
2023-05-14T04:09:24.413Z,99.99
2023-05-14T04:10:22.587Z,99.99
2023-05-14T04:11:43.485Z,99.99
2023-05-14T04:12:22.366Z,99.99
2023-05-14T04:13:22.419Z,99.99
2023-05-14T04:14:22.327Z,99.99
2023-05-14T04:15:22.409Z,99.99
2023-05-14T04:16:22.364Z,99.99
2023-05-14T04:17:22.345Z,99.99
2023-05-14T04:18:22.271Z,99.99
2023-05-14T04:19:22.318Z,99.99
2023-05-14T04:20:22.443Z,99.99
2023-05-14T04:21:22.335Z,99.99
2023-05-14T04:22:22.257Z,99.99
2023-05-14T04:23:22.360Z,99.99
2023-05-14T04:24:22.212Z,99.99
2023-05-14T04:25:22.262Z,99.99
2023-05-14T04:26:22.238Z,99.99
2023-05-14T04:27:22.345Z,99.99
2023-05-14T04:28:22.205Z,99.99
2023-05-14T04:29:22.292Z,99.99
2023-05-14T04:30:22.266Z,99.99
2023-05-14T04:31:22.259Z,99.99
2023-05-14T04:32:22.148Z,99.99
2023-05-14T04:33:22.256Z,99.99
2023-05-14T04:34:22.123Z,99.99
2023-05-14T04:35:24.708Z,99.99
2023-05-14T04:36:22.097Z,99.99
2023-05-14T04:37:22.172Z,99.99
2023-05-14T04:38:22.095Z,99.99
2023-05-14T04:39:22.163Z,99.99
2023-05-14T04:40:22.388Z,99.99
2023-05-14T04:41:22.164Z,99.99
2023-05-14T04:42:22.014Z,99.99
2023-05-14T04:43:22.080Z,99.99
2023-05-14T04:44:22.030Z,99.99
2023-05-14T04:45:22.118Z,99.99
2023-05-14T04:46:22.032Z,99.99
2023-05-14T04:47:22.127Z,99.99
2023-05-14T04:48:21.954Z,99.99
2023-05-14T04:49:22.071Z,99.99
2023-05-14T04:50:22.195Z,99.99
2023-05-14T04:51:22.043Z,99.99
2023-05-14T04:52:21.917Z,99.99
2023-05-14T04:53:22.069Z,99.99
2023-05-14T04:54:21.940Z,99.99
2023-05-14T04:55:24.018Z,99.99
2023-05-14T04:56:21.876Z,99.99
2023-05-14T04:57:23.030Z,99.99
2023-05-14T04:58:21.850Z,99.99
2023-05-14T04:59:44.014Z,99.99
2023-05-14T05:00:22.476Z,99.99
2023-05-14T05:01:21.937Z,99.99
2023-05-14T05:02:21.847Z,99.99
2023-05-14T05:03:22.051Z,99.99
2023-05-14T05:04:21.789Z,99.99
2023-05-14T05:05:23.881Z,99.99
2023-05-14T05:06:21.765Z,99.99
2023-05-14T05:07:21.910Z,99.99
2023-05-14T05:08:21.756Z,99.99
2023-05-14T05:09:21.867Z,99.99
2023-05-14T05:10:22.056Z,99.99
2023-05-14T05:11:21.912Z,99.99
2023-05-14T05:12:21.721Z,99.99
2023-05-14T05:13:21.795Z,99.99
2023-05-14T05:14:21.694Z,99.99
2023-05-14T05:15:21.810Z,99.99
2023-05-14T05:16:21.756Z,99.99
2023-05-14T05:17:21.921Z,99.99
2023-05-14T05:18:21.650Z,99.99
2023-05-14T05:19:29.155Z,99.99
2023-05-14T05:20:21.793Z,99.99
2023-05-14T05:21:21.744Z,99.99
2023-05-14T05:22:21.637Z,99.99
2023-05-14T05:23:21.775Z,99.99
2023-05-14T05:24:21.581Z,99.99
2023-05-14T05:25:21.674Z,99.99
2023-05-14T05:26:21.566Z,99.99
2023-05-14T05:27:21.720Z,99.99
2023-05-14T05:28:21.543Z,99.99
2023-05-14T05:29:21.707Z,99.99
2023-05-14T05:30:21.724Z,99.99
2023-05-14T05:31:21.778Z,99.99
2023-05-14T05:32:21.576Z,99.99
2023-05-14T05:33:21.627Z,99.99
2023-05-14T05:34:21.517Z,99.99
2023-05-14T05:35:21.642Z,99.99
2023-05-14T05:36:21.462Z,99.99
2023-05-14T05:37:21.609Z,99.99
2023-05-14T05:38:21.438Z,99.99
2023-05-14T05:39:21.588Z,99.99
2023-05-14T05:40:21.520Z,99.99
2023-05-14T05:41:21.592Z,99.99
2023-05-14T05:42:21.434Z,99.99
2023-05-14T05:43:21.588Z,99.99
2023-05-14T05:44:21.394Z,99.99
2023-05-14T05:45:22.528Z,99.99
2023-05-14T05:46:21.428Z,99.99
2023-05-14T05:47:21.566Z,99.99
2023-05-14T05:48:21.366Z,99.99
2023-05-14T05:49:21.575Z,99.99
2023-05-14T05:50:21.493Z,99.99
2023-05-14T05:51:21.450Z,99.99
2023-05-14T05:52:21.301Z,99.99
2023-05-14T05:53:22.529Z,99.99
2023-05-14T05:54:21.270Z,99.99
2023-05-14T05:55:22.396Z,99.99
2023-05-14T05:56:21.249Z,99.99
2023-05-14T05:57:21.427Z,99.99
2023-05-14T05:58:21.259Z,99.99
2023-05-14T05:59:21.399Z,99.99
2023-05-14T06:00:21.339Z,99.99
2023-05-14T06:01:22.523Z,99.99
2023-05-14T06:02:21.274Z,99.99
2023-05-14T06:03:21.429Z,99.99
2023-05-14T06:04:21.178Z,99.99
2023-05-14T06:05:21.376Z,99.99
2023-05-14T06:06:21.154Z,99.99
2023-05-14T06:07:21.353Z,99.99
2023-05-14T06:08:21.143Z,99.99
2023-05-14T06:09:21.311Z,99.99
2023-05-14T06:10:21.183Z,99.41
2023-05-14T06:11:21.192Z,99.72
2023-05-14T06:12:21.100Z,99.62
2023-05-14T06:13:21.188Z,99.99
2023-05-14T06:14:21.094Z,99.62
2023-05-14T06:15:21.128Z,99.62
2023-05-14T06:16:21.132Z,99.52
2023-05-14T06:17:21.146Z,99.99
2023-05-14T06:18:21.031Z,99.99
2023-05-14T06:19:21.218Z,99.82
2023-05-14T06:20:21.116Z,99.72
2023-05-14T06:21:21.045Z,99.72
2023-05-14T06:22:21.000Z,99.72
2023-05-14T06:23:21.075Z,99.52
2023-05-14T06:24:21.006Z,99.41
2023-05-14T06:25:21.123Z,99.72
2023-05-14T06:26:20.956Z,99.99
2023-05-14T06:27:20.992Z,99.11
2023-05-14T06:28:20.933Z,99.99
2023-05-14T06:29:22.045Z,99.99
2023-05-14T06:30:21.064Z,99.99
2023-05-14T06:31:22.993Z,99.31
2023-05-14T06:32:21.055Z,99.41
2023-05-14T06:33:22.990Z,99.31
2023-05-14T06:34:20.864Z,99.01
2023-05-14T06:35:21.986Z,98.80
2023-05-14T06:36:20.851Z,98.90
2023-05-14T06:37:21.939Z,98.80
2023-05-14T06:38:20.827Z,98.80
2023-05-14T06:39:20.871Z,99.99
2023-05-14T06:40:20.949Z,99.21
2023-05-14T06:41:20.899Z,99.41
2023-05-14T06:42:20.812Z,99.99
2023-05-14T06:43:20.906Z,99.99
2023-05-14T06:44:20.770Z,99.52
2023-05-14T06:45:20.841Z,99.62
2023-05-14T06:46:20.748Z,99.11
2023-05-14T06:47:20.829Z,99.99
2023-05-14T06:48:20.860Z,99.99
2023-05-14T06:49:20.829Z,99.82
2023-05-14T06:50:20.756Z,99.99
2023-05-14T06:51:20.762Z,99.99
2023-05-14T06:52:20.687Z,99.82
2023-05-14T06:53:20.772Z,99.82
2023-05-14T06:54:20.713Z,99.41
2023-05-14T06:55:20.807Z,99.99
2023-05-14T06:56:20.642Z,99.93
2023-05-14T06:57:20.686Z,99.41
2023-05-14T06:58:20.623Z,99.82
2023-05-14T06:59:20.726Z,99.62
2023-05-14T07:00:20.729Z,99.99
2023-05-14T07:01:20.749Z,99.99
2023-05-14T07:02:20.644Z,99.72
2023-05-14T07:03:20.744Z,99.62
2023-05-14T07:04:20.726Z,99.99
2023-05-14T07:05:20.703Z,99.99
2023-05-14T07:06:20.520Z,99.99
2023-05-14T07:07:20.748Z,99.99
2023-05-14T07:08:20.539Z,99.99
2023-05-14T07:09:20.573Z,99.99
2023-05-14T07:10:20.540Z,99.99
2023-05-14T07:11:20.591Z,99.99
2023-05-14T07:12:20.481Z,99.93
2023-05-14T07:13:20.648Z,99.99
2023-05-14T07:14:20.456Z,99.99
2023-05-14T07:15:20.622Z,99.99
2023-05-14T07:16:20.431Z,99.72
2023-05-14T07:17:21.615Z,99.82
2023-05-14T07:18:20.431Z,99.93
2023-05-14T07:19:20.544Z,99.93
2023-05-14T07:20:20.409Z,99.99
2023-05-14T07:21:20.588Z,99.99
2023-05-14T07:22:20.368Z,99.99
2023-05-14T07:23:20.520Z,99.52
2023-05-14T07:24:20.360Z,99.41
2023-05-14T07:25:20.497Z,99.41
2023-05-14T07:26:20.527Z,99.41
2023-05-14T07:27:20.616Z,99.11
2023-05-14T07:28:20.322Z,99.31
2023-05-14T07:29:20.453Z,99.16
2023-05-14T07:30:20.320Z,99.27
2023-05-14T07:31:20.503Z,99.27
2023-05-14T07:32:20.272Z,99.88
2023-05-14T07:33:20.443Z,98.86
2023-05-14T07:34:20.284Z,98.65
2023-05-14T07:35:20.367Z,98.55
2023-05-14T07:36:20.224Z,98.86
2023-05-14T07:37:21.510Z,99.06
2023-05-14T07:38:20.203Z,98.86
2023-05-14T07:39:20.379Z,98.65
2023-05-14T07:40:20.194Z,98.71
2023-05-14T07:41:20.284Z,98.20
2023-05-14T07:42:34.308Z,97.79
2023-05-14T07:43:20.205Z,97.99
2023-05-14T07:44:20.360Z,98.20
2023-05-14T07:45:20.125Z,96.97
2023-05-14T07:46:20.215Z,97.79
2023-05-14T07:47:20.142Z,97.79
2023-05-14T07:48:20.258Z,98.71
2023-05-14T07:49:20.115Z,98.40
2023-05-14T07:50:20.244Z,97.89
2023-05-14T07:51:20.076Z,97.79
2023-05-14T07:52:20.164Z,98.05
2023-05-14T07:53:20.053Z,98.15
2023-05-14T07:54:20.223Z,98.56
2023-05-14T07:55:20.046Z,97.44
2023-05-14T07:56:20.220Z,97.69
2023-05-14T07:57:20.019Z,97.44
2023-05-14T07:58:20.130Z,97.44
2023-05-14T07:59:20.010Z,98.15
2023-05-14T08:00:20.143Z,98.15
2023-05-14T08:01:19.962Z,97.44
2023-05-14T08:02:20.165Z,98.25
2023-05-14T08:03:20.059Z,97.13
2023-05-14T08:04:21.137Z,97.49
2023-05-14T08:05:19.931Z,98.41
2023-05-14T08:06:20.058Z,98.11
2023-05-14T08:07:19.933Z,97.90
2023-05-14T08:08:20.076Z,96.98
2023-05-14T08:09:19.910Z,96.94
2023-05-14T08:10:20.174Z,96.63
2023-05-14T08:11:19.909Z,95.41
2023-05-14T08:12:20.034Z,95.41
2023-05-14T08:13:19.843Z,95.61
2023-05-14T08:14:20.105Z,95.92
2023-05-14T08:15:19.829Z,95.72
2023-05-14T08:16:22.051Z,95.41
2023-05-14T08:17:19.836Z,94.24
2023-05-14T08:18:19.944Z,94.85
2023-05-14T08:19:19.927Z,92.71
2023-05-14T08:20:21.050Z,93.12
2023-05-14T08:21:19.774Z,92.81
2023-05-14T08:22:20.927Z,93.52
2023-05-14T08:23:19.769Z,93.73
2023-05-14T08:24:19.928Z,92.50
2023-05-14T08:25:19.717Z,93.73
2023-05-14T08:26:19.896Z,94.14
2023-05-14T08:27:19.699Z,94.14
2023-05-14T08:28:20.008Z,93.12
2023-05-14T08:29:19.694Z,92.91
2023-05-14T08:30:19.851Z,93.22
2023-05-14T08:31:19.703Z,93.73
2023-05-14T08:32:23.791Z,93.43
2023-05-14T08:33:19.716Z,93.43
2023-05-14T08:34:19.698Z,93.89
2023-05-14T08:35:19.627Z,94.60
2023-05-14T08:36:21.720Z,93.18
2023-05-14T08:37:19.609Z,93.07
2023-05-14T08:38:19.701Z,94.30
2023-05-14T08:39:19.600Z,93.99
2023-05-14T08:40:19.706Z,92.36
2023-05-14T08:41:19.563Z,91.65
2023-05-14T08:42:20.670Z,92.72
2023-05-14T08:43:19.528Z,93.54
2023-05-14T08:44:19.687Z,92.11
2023-05-14T08:45:19.527Z,93.24
2023-05-14T08:46:20.079Z,92.72
2023-05-14T08:47:19.505Z,91.20
2023-05-14T08:48:21.682Z,92.52
2023-05-14T08:49:19.491Z,90.79
2023-05-14T08:50:23.020Z,90.99
2023-05-14T08:51:19.454Z,92.32
2023-05-14T08:52:19.569Z,92.32
2023-05-14T08:53:19.420Z,91.81
2023-05-14T08:54:19.531Z,91.09
2023-05-14T08:55:19.421Z,91.81
2023-05-14T08:56:42.567Z,90.79
2023-05-14T08:57:19.399Z,91.81
2023-05-14T08:58:19.588Z,91.20
2023-05-14T08:59:19.379Z,91.75
2023-05-14T09:00:19.467Z,92.93
2023-05-14T09:01:19.373Z,91.75
2023-05-14T09:02:19.494Z,91.96
2023-05-14T09:03:19.479Z,90.22
2023-05-14T09:04:19.884Z,91.03
2023-05-14T09:05:19.356Z,92.05
2023-05-14T09:06:19.319Z,92.77
2023-05-14T09:07:19.366Z,91.55
2023-05-14T09:08:19.263Z,90.79
2023-05-14T09:09:19.461Z,92.05
2023-05-14T09:10:19.250Z,91.65
2023-05-14T09:11:20.553Z,92.26
2023-05-14T09:12:19.238Z,91.03
2023-05-14T09:13:19.441Z,91.35
2023-05-14T09:14:19.235Z,93.99
2023-05-14T09:15:19.357Z,91.55
2023-05-14T09:16:19.241Z,91.96
2023-05-14T09:17:19.261Z,92.05
2023-05-14T09:18:19.160Z,92.16
2023-05-14T09:19:19.706Z,91.75
2023-05-14T09:20:19.163Z,92.26
2023-05-14T09:21:19.327Z,92.05
2023-05-14T09:22:19.204Z,92.36
2023-05-14T09:23:19.197Z,92.05
2023-05-14T09:24:19.125Z,92.16
2023-05-14T09:25:19.188Z,92.77
2023-05-14T09:26:19.110Z,92.26
2023-05-14T09:27:19.206Z,93.07
2023-05-14T09:28:19.064Z,92.97
2023-05-14T09:29:19.177Z,91.85
2023-05-14T09:30:19.028Z,91.96
2023-05-14T09:31:19.169Z,93.28
2023-05-14T09:32:19.140Z,93.89
2023-05-14T09:33:19.179Z,92.46
2023-05-14T09:34:19.015Z,92.77
2023-05-14T09:35:19.075Z,92.26
2023-05-14T09:36:19.007Z,92.10
2023-05-14T09:37:20.156Z,92.81
2023-05-14T09:38:18.962Z,93.48
2023-05-14T09:39:20.171Z,92.87
2023-05-14T09:40:18.962Z,92.87
2023-05-14T09:41:19.138Z,92.67
2023-05-14T09:42:18.962Z,92.81
2023-05-14T09:43:19.010Z,93.12
2023-05-14T09:44:18.961Z,92.30
2023-05-14T09:45:20.972Z,93.12
2023-05-14T09:46:18.876Z,93.12
2023-05-14T09:47:19.082Z,93.02
2023-05-14T09:48:18.898Z,92.71
2023-05-14T09:49:18.995Z,93.02
2023-05-14T09:50:18.838Z,92.91
2023-05-14T09:51:18.989Z,92.16
2023-05-14T09:52:18.837Z,91.65
2023-05-14T09:53:18.936Z,92.87
2023-05-14T09:54:18.801Z,91.96
2023-05-14T09:55:18.900Z,92.97
2023-05-14T09:56:18.793Z,91.65
2023-05-14T09:57:18.911Z,91.75
2023-05-14T09:58:18.790Z,91.65
2023-05-14T09:59:18.947Z,92.36
2023-05-14T10:00:18.731Z,93.28
2023-05-14T10:01:18.784Z,92.36
2023-05-14T10:02:18.836Z,92.97
2023-05-14T10:03:20.086Z,92.77
2023-05-14T10:04:18.946Z,92.36
2023-05-14T10:05:18.709Z,92.57
2023-05-14T10:06:18.775Z,93.38
2023-05-14T10:07:18.682Z,92.97
2023-05-14T10:08:18.805Z,92.26
2023-05-14T10:09:18.658Z,91.65
2023-05-14T10:10:18.859Z,91.96
2023-05-14T10:11:18.627Z,92.05
2023-05-14T10:12:18.723Z,94.71
2023-05-14T10:13:18.599Z,93.89
2023-05-14T10:14:18.794Z,92.57
2023-05-14T10:15:18.587Z,91.24
2023-05-14T10:16:18.765Z,93.07
2023-05-14T10:17:18.761Z,91.24
2023-05-14T10:18:18.738Z,91.24
2023-05-14T10:19:18.661Z,91.24
2023-05-14T10:20:18.691Z,91.24
2023-05-14T10:21:18.508Z,91.44
2023-05-14T10:22:18.703Z,91.44
2023-05-14T10:23:18.490Z,92.63
2023-05-14T10:24:18.627Z,91.71
2023-05-14T10:25:18.464Z,92.38
2023-05-14T10:26:18.613Z,92.27
2023-05-14T10:27:18.441Z,89.89
2023-05-14T10:28:18.623Z,89.48
2023-05-14T10:29:18.428Z,89.28
2023-05-14T10:30:23.401Z,89.34
2023-05-14T10:31:18.544Z,89.34
2023-05-14T10:32:18.546Z,87.61
2023-05-14T10:33:18.385Z,87.57
2023-05-14T10:34:18.746Z,88.48
2023-05-14T10:35:18.483Z,86.35
2023-05-14T10:36:18.573Z,87.47
2023-05-14T10:37:18.360Z,89.26
2023-05-14T10:38:20.413Z,87.53
2023-05-14T10:39:18.319Z,84.99
2023-05-14T10:40:19.689Z,84.07
2023-05-14T10:41:18.296Z,85.86
2023-05-14T10:42:18.431Z,84.95
2023-05-14T10:43:18.272Z,85.96
2023-05-14T10:44:18.424Z,85.35
2023-05-14T10:45:18.302Z,85.66
2023-05-14T10:46:18.453Z,87.65
2023-05-14T10:47:18.255Z,86.43
2023-05-14T10:48:18.484Z,86.80
2023-05-14T10:49:28.868Z,85.47
2023-05-14T10:50:18.243Z,84.66
2023-05-14T10:51:18.371Z,82.03
2023-05-14T10:52:18.187Z,81.11
2023-05-14T10:53:18.377Z,82.64
2023-05-14T10:54:18.158Z,83.79
2023-05-14T10:55:18.369Z,83.28
2023-05-14T10:56:18.180Z,83.42
2023-05-14T10:57:18.215Z,82.20
2023-05-14T10:58:18.132Z,84.34
2023-05-14T10:59:18.243Z,85.29
2023-05-14T11:00:18.241Z,84.28
2023-05-14T11:01:18.275Z,83.36
2023-05-14T11:02:18.127Z,83.36
2023-05-14T11:03:18.220Z,85.80
2023-05-14T11:04:18.109Z,84.54
2023-05-14T11:05:18.196Z,85.19
2023-05-14T11:06:18.051Z,87.49
2023-05-14T11:07:18.068Z,87.73
2023-05-14T11:08:18.017Z,87.73
2023-05-14T11:09:18.087Z,86.77
2023-05-14T11:10:18.091Z,84.84
2023-05-14T11:11:18.103Z,84.54
2023-05-14T11:12:17.997Z,84.54
2023-05-14T11:13:18.006Z,83.83
2023-05-14T11:14:17.972Z,85.86
2023-05-14T11:15:18.052Z,84.84
2023-05-14T11:16:23.544Z,85.86
2023-05-14T11:17:17.996Z,86.88
2023-05-14T11:18:18.038Z,85.72
2023-05-14T11:19:17.993Z,85.15
2023-05-14T11:20:18.121Z,84.64
2023-05-14T11:21:17.902Z,84.03
2023-05-14T11:22:17.980Z,82.92
2023-05-14T11:23:17.868Z,83.01
2023-05-14T11:24:17.974Z,86.47
2023-05-14T11:25:17.878Z,84.23
2023-05-14T11:26:19.465Z,82.00
2023-05-14T11:27:17.816Z,82.71
2023-05-14T11:28:17.886Z,83.32
2023-05-14T11:29:17.806Z,84.95
2023-05-14T11:30:17.996Z,85.35
2023-05-14T11:31:17.827Z,85.46
2023-05-14T11:32:17.820Z,83.38
2023-05-14T11:33:17.780Z,82.47
2023-05-14T11:34:17.828Z,80.94
2023-05-14T11:35:17.754Z,81.05
2023-05-14T11:36:17.789Z,82.37
2023-05-14T11:37:17.731Z,81.66
2023-05-14T11:38:17.760Z,82.87
2023-05-14T11:39:17.710Z,84.09
2023-05-14T11:40:17.898Z,83.28
2023-05-14T11:41:17.717Z,83.95
2023-05-14T11:42:17.801Z,83.45
2023-05-14T11:43:17.663Z,81.52
2023-05-14T11:44:17.690Z,81.52
2023-05-14T11:45:17.673Z,81.27
2023-05-14T11:46:17.780Z,81.27
2023-05-14T11:47:17.625Z,80.16
2023-05-14T11:48:17.718Z,80.16
2023-05-14T11:49:17.600Z,80.06
2023-05-14T11:50:17.682Z,79.00
2023-05-14T11:51:17.584Z,82.05
2023-05-14T11:52:17.652Z,79.72
2023-05-14T11:53:17.569Z,77.86
2023-05-14T11:54:17.670Z,78.16
2023-05-14T11:55:17.563Z,78.77
2023-05-14T11:56:17.603Z,77.75
2023-05-14T11:57:17.554Z,80.59
2023-05-14T11:58:17.602Z,78.87
2023-05-14T11:59:17.484Z,79.47
2023-05-14T12:00:17.627Z,78.87
2023-05-14T12:01:17.491Z,76.94
2023-05-14T12:02:17.572Z,77.04
2023-05-14T12:03:17.558Z,77.65
2023-05-14T12:04:19.607Z,79.98
2023-05-14T12:05:17.425Z,77.04
2023-05-14T12:06:17.522Z,77.21
2023-05-14T12:07:17.396Z,78.42
2023-05-14T12:08:17.522Z,78.63
2023-05-14T12:09:17.381Z,79.00
2023-05-14T12:10:17.513Z,82.24
2023-05-14T12:11:17.380Z,77.78
2023-05-14T12:12:17.454Z,76.60
2023-05-14T12:13:17.336Z,77.51
2023-05-14T12:14:17.448Z,79.34
2023-05-14T12:15:17.330Z,80.55
2023-05-14T12:16:17.534Z,79.44
2023-05-14T12:17:17.359Z,77.07
2023-05-14T12:18:24.558Z,76.80
2023-05-14T12:19:17.303Z,75.89
2023-05-14T12:20:17.390Z,78.42
2023-05-14T12:21:17.272Z,77.04
2023-05-14T12:22:17.412Z,78.06
2023-05-14T12:23:17.247Z,78.97
2023-05-14T12:24:17.418Z,78.77
2023-05-14T12:25:17.223Z,80.49
2023-05-14T12:26:17.365Z,80.90
2023-05-14T12:27:17.203Z,82.31
2023-05-14T12:28:17.388Z,80.90
2023-05-14T12:29:17.199Z,80.19
2023-05-14T12:30:21.790Z,78.70
2023-05-14T12:31:17.173Z,78.70
2023-05-14T12:32:17.258Z,79.92
2023-05-14T12:33:17.166Z,79.61
2023-05-14T12:34:17.283Z,81.34
2023-05-14T12:35:17.111Z,79.11
2023-05-14T12:36:21.631Z,80.53
2023-05-14T12:37:17.091Z,80.63
2023-05-14T12:38:17.218Z,79.00
2023-05-14T12:39:17.061Z,79.58
2023-05-14T12:40:17.137Z,79.38
2023-05-14T12:41:17.072Z,79.17
2023-05-14T12:42:17.237Z,78.36
2023-05-14T12:43:17.025Z,81.30
2023-05-14T12:44:17.150Z,79.58
2023-05-14T12:45:16.994Z,79.98
2023-05-14T12:46:17.292Z,81.30
2023-05-14T12:47:17.049Z,81.77
2023-05-14T12:48:17.204Z,80.15
2023-05-14T12:49:16.966Z,81.37
2023-05-14T12:50:18.012Z,79.91
2023-05-14T12:51:16.973Z,80.52
2023-05-14T12:52:26.100Z,79.20
2023-05-14T12:53:18.040Z,78.35
2023-05-14T12:54:16.929Z,79.16
2023-05-14T12:55:17.169Z,76.53
2023-05-14T12:56:16.889Z,75.21
2023-05-14T12:57:17.069Z,77.44
2023-05-14T12:58:16.863Z,75.62
2023-05-14T12:59:18.045Z,74.91
2023-05-14T13:00:16.966Z,74.30